Time;durP1;ratioP1;P1;durP2;ratioP2;P2;SDS_P1;SDS_P2;PMS_P1;PMS_P2;Temp;Humidity;BMP_temperature;BMP_pressure;BME280_temperature;BME280_humidity;BME280_pressure;Samples;Min_cycle;Max_cycle;Signal;HPM_P1;HPM_P2
2021/12/05 00:20:21;;;;;;;6.97;3.33;;;17.60;99.90;;;;;;4232685;28;20234;-86
2021/12/05 00:22:29;;;;;;;6.60;3.20;;;17.60;99.90;;;;;;4232497;28;20202;-86
2021/12/05 00:24:37;;;;;;;6.68;3.22;;;17.60;99.90;;;;;;4232134;28;20213;-86
2021/12/05 00:26:42;;;;;;;6.15;2.90;;;17.60;99.90;;;;;;4232169;28;20222;-86
2021/12/05 00:31:23;;;;;;;6.57;3.58;;;17.60;99.90;;;;;;4211467;28;20232;-86
2021/12/05 00:33:46;;;;;;;5.43;2.65;;;17.60;99.90;;;;;;4232174;28;20598;-86
2021/12/05 00:48:18;;;;;;;6.15;3.03;;;17.60;99.90;;;;;;4211987;28;20272;-86
2021/12/05 00:50:50;;;;;;;6.65;3.22;;;17.50;99.90;;;;;;4232006;28;20259;-86
2021/12/05 00:53:36;;;;;;;5.07;2.58;;;17.50;99.90;;;;;;4232153;28;20225;-86
2021/12/05 00:55:49;;;;;;;5.25;2.70;;;17.50;99.90;;;;;;4232475;28;20190;-85
2021/12/05 01:01:00;;;;;;;6.72;2.78;;;17.50;99.90;;;;;;4200917;27;20249;-86
2021/12/05 01:03:26;;;;;;;6.03;2.80;;;17.50;99.90;;;;;;4249036;27;20197;-88
2021/12/05 01:06:07;;;;;;;4.88;2.30;;;17.50;99.90;;;;;;4249038;27;20254;-86
2021/12/05 01:08:15;;;;;;;5.95;2.92;;;17.50;99.90;;;;;;4248408;27;20220;-86
2021/12/05 01:10:31;;;;;;;4.85;2.72;;;17.50;99.90;;;;;;4249071;27;20246;-89
2021/12/05 01:12:43;;;;;;;6.70;3.00;;;17.50;99.90;;;;;;4249236;27;20217;-86
2021/12/05 01:15:00;;;;;;;6.43;2.80;;;17.50;99.90;;;;;;4248654;27;20656;-88
2021/12/05 01:17:04;;;;;;;5.63;2.65;;;17.50;99.90;;;;;;4249259;27;20713;-88
2021/12/05 01:19:08;;;;;;;5.38;2.47;;;17.50;99.90;;;;;;4248473;27;20236;-86
2021/12/05 01:21:15;;;;;;;5.28;2.30;;;17.50;99.90;;;;;;4249108;27;20193;-88
2021/12/05 01:23:26;;;;;;;4.75;2.60;;;17.40;99.90;;;;;;4248353;27;20665;-88
2021/12/05 01:25:39;;;;;;;6.22;2.80;;;17.50;99.90;;;;;;4248746;27;20209;-86
2021/12/05 01:27:47;;;;;;;4.57;2.60;;;17.50;99.90;;;;;;4248758;28;20980;-88
2021/12/05 01:29:55;;;;;;;4.70;2.70;;;17.50;99.90;;;;;;4249312;28;20713;-86
2021/12/05 01:32:07;;;;;;;3.72;2.30;;;17.50;99.90;;;;;;4248956;28;20265;-88
2021/12/05 01:34:24;;;;;;;5.55;2.50;;;17.50;99.90;;;;;;4248824;28;20259;-88
2021/12/05 01:36:33;;;;;;;6.47;2.70;;;17.50;99.90;;;;;;4248708;28;20258;-88
2021/12/05 01:38:54;;;;;;;4.82;2.40;;;17.40;99.90;;;;;;4248841;28;20254;-88
2021/12/05 01:41:11;;;;;;;3.83;2.22;;;17.40;99.90;;;;;;4248517;28;20209;-88
2021/12/05 01:58:13;;;;;;;5.13;2.33;;;17.40;99.90;;;;;;4205523;28;20209;-88
2021/12/05 02:12:20;;;;;;;6.50;2.35;;;17.40;99.90;;;;;;4209458;28;20281;-88
2021/12/05 02:38:16;;;;;;;3.90;2.28;;;17.30;99.90;;;;;;4227880;27;20230;-88
2021/12/05 02:40:26;;;;;;;3.45;1.90;;;17.40;99.90;;;;;;4237607;27;20209;-88
2021/12/05 02:42:31;;;;;;;3.25;1.60;;;17.30;99.90;;;;;;4236908;27;20262;-87
2021/12/05 02:44:34;;;;;;;4.65;2.05;;;17.30;99.90;;;;;;4239870;27;20258;-88
2021/12/05 02:46:39;;;;;;;4.15;1.65;;;17.30;99.90;;;;;;4236843;27;20221;-88
2021/12/05 02:48:43;;;;;;;4.93;2.17;;;17.30;99.90;;;;;;4241148;27;20213;-85
2021/12/05 02:50:45;;;;;;;3.50;1.90;;;17.30;99.90;;;;;;4240778;27;20209;-86
2021/12/05 02:52:48;;;;;;;5.35;2.17;;;17.30;99.90;;;;;;4237574;27;20249;-86
2021/12/05 02:54:55;;;;;;;4.30;2.10;;;17.30;99.90;;;;;;4235904;27;20258;-86
2021/12/05 02:56:59;;;;;;;4.22;1.88;;;17.30;99.90;;;;;;4238779;27;20210;-85
2021/12/05 02:59:07;;;;;;;3.58;2.03;;;17.30;99.90;;;;;;4240316;27;20606;-86
2021/12/05 03:01:26;;;;;;;3.25;1.75;;;17.40;99.90;;;;;;4240425;27;20209;-86
2021/12/05 03:03:32;;;;;;;4.00;2.20;;;17.30;99.90;;;;;;4237337;27;20278;-86
2021/12/05 03:05:34;;;;;;;4.55;1.85;;;17.30;99.90;;;;;;4242586;27;20249;-86
2021/12/05 03:07:39;;;;;;;4.57;2.15;;;17.40;99.90;;;;;;4239191;27;20222;-86
2021/12/05 03:09:43;;;;;;;2.72;1.48;;;17.30;99.90;;;;;;4239070;27;20205;-86
2021/12/05 03:11:48;;;;;;;4.30;1.67;;;17.30;99.90;;;;;;4237079;27;20660;-85
2021/12/05 03:13:51;;;;;;;2.33;1.30;;;17.30;99.90;;;;;;4244942;27;20229;-86
2021/12/05 03:15:56;;;;;;;4.70;2.10;;;17.30;99.90;;;;;;4238523;27;20225;-85
2021/12/05 03:17:58;;;;;;;2.97;1.48;;;17.30;99.90;;;;;;4237923;27;20270;-88
2021/12/05 03:20:01;;;;;;;3.28;1.63;;;17.30;99.90;;;;;;4239346;27;20238;-86
2021/12/05 03:22:04;;;;;;;2.97;1.60;;;17.30;99.90;;;;;;4238893;27;20217;-88
2021/12/05 03:24:08;;;;;;;4.25;1.88;;;17.20;99.90;;;;;;4234670;27;20615;-86
2021/12/05 03:26:14;;;;;;;4.22;1.60;;;17.30;99.90;;;;;;4238586;27;20270;-85
2021/12/05 03:28:18;;;;;;;3.28;1.73;;;17.30;99.90;;;;;;4238621;27;20297;-86
2021/12/05 03:30:25;;;;;;;3.83;1.80;;;17.20;99.90;;;;;;4234529;27;20209;-86
2021/12/05 03:32:27;;;;;;;4.55;1.83;;;17.30;99.90;;;;;;4242005;27;20206;-86
2021/12/05 03:34:30;;;;;;;4.20;1.80;;;17.20;99.90;;;;;;4239032;27;20650;-87
2021/12/05 03:36:33;;;;;;;4.47;1.88;;;17.30;99.90;;;;;;4239361;27;20213;-86
2021/12/05 03:38:37;;;;;;;2.85;1.60;;;17.30;99.90;;;;;;4234989;27;20965;-85
2021/12/05 03:40:39;;;;;;;2.83;1.33;;;17.30;99.90;;;;;;4237037;27;20217;-87
2021/12/05 03:42:42;;;;;;;3.85;1.80;;;17.20;99.90;;;;;;4240704;27;20265;-86
2021/12/05 03:44:46;;;;;;;5.22;1.70;;;17.30;99.90;;;;;;4237131;27;20210;-86
2021/12/05 03:46:49;;;;;;;3.25;1.42;;;17.30;99.90;;;;;;4239782;27;20220;-86
2021/12/05 03:48:56;;;;;;;4.57;1.85;;;17.30;99.90;;;;;;4237579;27;20256;-86
2021/12/05 03:50:59;;;;;;;4.28;1.80;;;17.20;99.90;;;;;;4237935;27;20217;-86
2021/12/05 03:53:02;;;;;;;2.47;1.70;;;17.20;99.90;;;;;;4237559;27;20221;-86
2021/12/05 03:55:07;;;;;;;3.33;1.52;;;17.30;99.90;;;;;;4239991;27;20226;-86
2021/12/05 03:57:10;;;;;;;2.05;1.50;;;17.20;99.90;;;;;;4239024;27;20607;-86
2021/12/05 03:59:13;;;;;;;3.50;1.55;;;17.20;99.90;;;;;;4238238;27;20243;-85
2021/12/05 04:01:17;;;;;;;2.92;1.58;;;17.20;99.90;;;;;;4236360;27;20201;-85
2021/12/05 04:03:21;;;;;;;3.03;1.65;;;17.20;99.90;;;;;;4238298;27;20261;-86
2021/12/05 04:05:25;;;;;;;2.22;1.40;;;17.20;99.90;;;;;;4241356;27;20731;-86
2021/12/05 04:07:27;;;;;;;3.53;1.65;;;17.20;99.90;;;;;;4241315;27;20235;-86
2021/12/05 04:09:30;;;;;;;3.15;1.55;;;17.20;99.90;;;;;;4239008;27;20251;-86
2021/12/05 04:11:39;;;;;;;3.63;1.23;;;17.20;99.90;;;;;;4238433;27;20222;-85
2021/12/05 04:13:41;;;;;;;2.50;1.48;;;17.20;99.90;;;;;;4239048;27;20947;-85
2021/12/05 04:15:45;;;;;;;2.72;1.30;;;17.20;99.90;;;;;;4237577;27;20741;-86
2021/12/05 04:17:49;;;;;;;3.47;1.63;;;17.20;99.90;;;;;;4235896;27;20221;-84
2021/12/05 04:19:51;;;;;;;2.58;1.55;;;17.20;99.90;;;;;;4238452;27;20261;-85
2021/12/05 04:21:54;;;;;;;2.78;1.35;;;17.20;99.90;;;;;;4236918;27;20613;-85
2021/12/05 04:23:58;;;;;;;3.45;1.15;;;17.20;99.90;;;;;;4236966;27;20209;-86
2021/12/05 04:26:02;;;;;;;2.88;1.42;;;17.20;99.90;;;;;;4237163;27;20209;-85
2021/12/05 04:28:06;;;;;;;2.63;1.55;;;17.10;99.90;;;;;;4236970;27;20258;-86
2021/12/05 04:30:11;;;;;;;2.65;1.40;;;17.20;99.90;;;;;;4234504;27;20214;-86
2021/12/05 04:32:14;;;;;;;1.80;1.20;;;17.20;99.90;;;;;;4241402;27;20209;-86
2021/12/05 04:34:18;;;;;;;2.83;1.52;;;17.20;99.90;;;;;;4238201;27;20279;-86
2021/12/05 04:36:21;;;;;;;2.28;1.35;;;17.20;99.90;;;;;;4237518;27;20231;-86
2021/12/05 04:38:23;;;;;;;2.50;1.27;;;17.10;99.90;;;;;;4236272;27;20224;-86
2021/12/05 04:40:26;;;;;;;4.18;1.30;;;17.10;99.90;;;;;;4238305;27;20238;-86
2021/12/05 04:42:28;;;;;;;2.28;1.30;;;17.10;99.90;;;;;;4237392;27;20709;-86
2021/12/05 04:44:32;;;;;;;2.90;1.50;;;17.10;99.90;;;;;;4235404;27;20242;-85
2021/12/05 04:46:35;;;;;;;2.08;1.17;;;17.20;99.90;;;;;;4236105;27;20213;-86
2021/12/05 04:48:43;;;;;;;5.03;1.48;;;17.20;99.90;;;;;;4239113;27;20213;-86
2021/12/05 04:50:47;;;;;;;2.05;1.23;;;17.20;99.90;;;;;;4237921;27;20741;-86
2021/12/05 04:52:51;;;;;;;3.78;1.20;;;17.10;99.90;;;;;;4239043;27;20255;-86
2021/12/05 04:54:53;;;;;;;2.95;1.33;;;17.20;99.90;;;;;;4234620;27;20255;-86
2021/12/05 04:56:56;;;;;;;2.55;1.30;;;17.10;99.90;;;;;;4236478;27;20202;-85
2021/12/05 04:58:59;;;;;;;3.17;1.40;;;17.20;99.90;;;;;;4238262;27;20212;-86
2021/12/05 05:01:02;;;;;;;2.72;1.30;;;17.10;99.90;;;;;;4240855;27;20213;-86
2021/12/05 05:03:05;;;;;;;4.20;1.55;;;17.20;99.90;;;;;;4233753;27;20209;-86
2021/12/05 05:05:09;;;;;;;2.38;1.27;;;17.20;99.90;;;;;;4232035;28;20210;-86
2021/12/05 05:07:20;;;;;;;2.15;1.30;;;17.10;99.90;;;;;;4231459;28;20254;-86
2021/12/05 05:09:22;;;;;;;3.83;1.25;;;17.10;99.90;;;;;;4231941;28;20214;-86
2021/12/05 05:11:26;;;;;;;2.63;1.40;;;17.10;99.90;;;;;;4232531;28;20262;-86
2021/12/05 05:13:30;;;;;;;1.95;1.10;;;17.10;99.90;;;;;;4232322;28;20206;-86
2021/12/05 05:15:32;;;;;;;2.67;1.10;;;17.10;99.90;;;;;;4231684;28;20283;-86
2021/12/05 05:17:37;;;;;;;2.45;1.42;;;17.10;99.90;;;;;;4232650;28;20263;-86
2021/12/05 05:19:43;;;;;;;2.03;1.20;;;17.10;99.90;;;;;;4231979;28;20233;-86
2021/12/05 05:21:51;;;;;;;2.47;1.35;;;17.00;99.90;;;;;;4231917;28;20209;-86
2021/12/05 05:47:27;;;;;;;3.15;1.20;;;17.00;99.90;;;;;;4214205;28;20598;-86
2021/12/05 05:49:46;;;;;;;2.25;1.20;;;17.00;99.90;;;;;;4231501;28;20266;-86
2021/12/05 05:51:48;;;;;;;1.98;1.08;;;17.00;99.90;;;;;;4235095;28;20545;-86
2021/12/05 05:53:51;;;;;;;2.95;1.00;;;17.00;99.90;;;;;;4235049;28;20258;-86
2021/12/05 05:55:55;;;;;;;2.25;1.20;;;17.00;99.90;;;;;;4234903;28;20226;-86
2021/12/05 05:58:05;;;;;;;2.80;1.23;;;17.00;99.90;;;;;;4234763;28;20202;-86
2021/12/05 06:00:14;;;;;;;3.28;1.23;;;17.00;99.90;;;;;;4235575;28;20576;-86
2021/12/05 06:04:36;;;;;;;1.52;1.10;;;17.00;99.90;;;;;;4193438;28;20610;-86
2021/12/05 06:06:38;;;;;;;1.77;1.00;;;17.00;99.90;;;;;;4234810;28;20210;-86
2021/12/05 06:08:42;;;;;;;3.08;1.35;;;17.00;99.90;;;;;;4234771;28;20666;-86
2021/12/05 06:10:45;;;;;;;4.10;1.20;;;17.00;99.90;;;;;;4234558;28;20214;-86
2021/12/05 06:12:49;;;;;;;2.13;1.10;;;17.00;99.90;;;;;;4235146;28;20530;-86
2021/12/05 06:14:51;;;;;;;1.98;1.25;;;17.00;99.90;;;;;;4234365;28;20261;-86
2021/12/05 06:16:53;;;;;;;2.35;0.85;;;16.90;99.90;;;;;;4234647;28;20210;-86
2021/12/05 06:18:56;;;;;;;3.15;1.02;;;17.00;99.90;;;;;;4230762;28;20230;-86
2021/12/05 06:20:59;;;;;;;1.35;1.10;;;17.00;99.90;;;;;;4217407;28;20214;-86
2021/12/05 06:23:02;;;;;;;1.95;1.00;;;17.00;99.90;;;;;;4217770;28;20219;-86
2021/12/05 06:25:06;;;;;;;2.03;1.10;;;16.90;99.90;;;;;;4217509;28;20206;-86
2021/12/05 06:27:08;;;;;;;2.25;1.05;;;16.90;99.90;;;;;;4216874;28;20214;-86
2021/12/05 06:29:16;;;;;;;2.38;1.20;;;17.00;99.90;;;;;;4217291;28;20244;-86
2021/12/05 06:31:26;;;;;;;2.53;1.17;;;16.90;99.90;;;;;;4217676;28;20205;-86
2021/12/05 06:38:13;;;;;;;2.13;1.15;;;16.90;99.90;;;;;;4234507;28;20182;-86
2021/12/05 06:40:37;;;;;;;1.70;1.23;;;16.90;99.90;;;;;;4234926;28;20290;-86
2021/12/05 06:42:50;;;;;;;2.55;1.00;;;16.90;99.90;;;;;;4234325;28;20247;-86
2021/12/05 06:47:15;;;;;;;1.40;1.00;;;16.90;99.90;;;;;;4234334;28;20194;-86
2021/12/05 06:49:17;;;;;;;1.98;0.98;;;16.90;99.90;;;;;;4233671;28;20218;-86
2021/12/05 06:51:23;;;;;;;2.03;1.23;;;16.90;99.90;;;;;;4234131;28;20206;-86
2021/12/05 06:53:26;;;;;;;1.30;0.80;;;16.90;99.90;;;;;;4234051;28;20275;-86
2021/12/05 06:55:28;;;;;;;1.95;0.90;;;16.90;99.90;;;;;;4233751;28;20233;-86
2021/12/05 06:57:31;;;;;;;1.63;1.00;;;16.90;99.90;;;;;;4233985;28;20271;-86
2021/12/05 06:59:34;;;;;;;2.63;1.17;;;16.90;99.90;;;;;;4233958;28;20218;-86
2021/12/05 07:01:38;;;;;;;2.65;1.30;;;16.90;99.90;;;;;;4233584;28;20210;-86
2021/12/05 07:03:45;;;;;;;1.77;1.00;;;16.90;99.90;;;;;;4233499;28;20663;-86
2021/12/05 07:05:53;;;;;;;1.75;1.00;;;16.90;99.90;;;;;;4233615;28;21001;-86
2021/12/05 07:07:55;;;;;;;2.90;1.10;;;16.90;99.90;;;;;;4234229;28;20607;-86
2021/12/05 07:09:58;;;;;;;1.52;0.90;;;16.90;99.90;;;;;;4234537;28;20194;-86
2021/12/05 07:12:28;;;;;;;2.17;0.93;;;16.90;99.90;;;;;;4234157;28;20210;-86
2021/12/05 07:14:37;;;;;;;1.63;1.00;;;16.90;99.90;;;;;;4233294;28;20629;-85
2021/12/05 07:16:46;;;;;;;1.73;0.98;;;16.90;99.90;;;;;;4234107;28;20210;-86
2021/12/05 07:19:03;;;;;;;1.75;1.02;;;16.90;99.90;;;;;;4235956;27;20244;-86
2021/12/05 07:21:28;;;;;;;2.47;1.15;;;16.90;99.90;;;;;;4250687;27;20197;-86
2021/12/05 07:23:44;;;;;;;1.90;1.08;;;16.80;99.90;;;;;;4250906;27;20197;-86
2021/12/05 07:25:52;;;;;;;2.75;1.02;;;16.90;99.90;;;;;;4251313;27;20226;-86
2021/12/05 07:42:05;;;;;;;1.67;1.10;;;16.80;99.90;;;;;;4233449;28;20591;-86
2021/12/05 07:44:08;;;;;;;1.35;0.80;;;16.80;99.90;;;;;;4233757;28;20193;-85
2021/12/05 07:46:11;;;;;;;1.35;1.00;;;16.80;99.90;;;;;;4233870;28;20593;-86
2021/12/05 07:48:20;;;;;;;1.45;1.10;;;16.80;99.90;;;;;;4233913;28;20194;-86
2021/12/05 07:50:34;;;;;;;1.58;1.00;;;16.80;99.90;;;;;;4233347;28;20212;-86
2021/12/05 07:52:40;;;;;;;3.13;1.10;;;16.80;99.90;;;;;;4233115;28;20274;-86
2021/12/05 07:54:46;;;;;;;2.25;0.93;;;16.80;99.90;;;;;;4232975;28;20259;-86
2021/12/05 07:56:53;;;;;;;1.70;1.10;;;16.80;99.90;;;;;;4233000;28;20695;-86
2021/12/05 07:59:10;;;;;;;1.65;0.82;;;16.80;99.90;;;;;;4233050;28;20268;-86
2021/12/05 08:14:20;;;;;;;2.00;0.80;;;16.80;99.90;;;;;;4233379;28;20643;-86
2021/12/05 08:15:25;;;;;;;1.58;1.10;;;16.80;99.90;;;;;;4232922;28;20594;-86
2021/12/05 08:17:27;;;;;;;2.53;1.10;;;16.80;99.90;;;;;;4233088;28;20222;-86
2021/12/05 08:19:31;;;;;;;2.28;1.13;;;16.80;99.90;;;;;;4233187;27;20286;-86
2021/12/05 08:21:34;;;;;;;1.90;1.23;;;16.80;99.90;;;;;;4236947;27;20202;-85
2021/12/05 08:23:36;;;;;;;1.70;1.15;;;16.80;99.90;;;;;;4232555;28;20638;-86
2021/12/05 08:25:44;;;;;;;2.88;1.20;;;16.80;99.90;;;;;;4232625;28;20206;-86
2021/12/05 08:27:47;;;;;;;1.60;1.08;;;16.80;99.90;;;;;;4232325;28;20572;-86
2021/12/05 08:29:53;;;;;;;2.33;1.00;;;16.80;99.90;;;;;;4232258;28;20205;-86
2021/12/05 08:32:17;;;;;;;1.38;1.00;;;16.80;99.90;;;;;;4232098;28;20254;-86
2021/12/05 08:34:42;;;;;;;1.02;0.90;;;16.80;99.90;;;;;;4246616;27;20209;-87
2021/12/05 08:39:56;;;;;;;1.75;1.10;;;16.80;99.90;;;;;;4223022;27;20270;-86
2021/12/05 08:42:29;;;;;;;2.00;1.30;;;16.80;99.90;;;;;;4249066;27;20262;-86
2021/12/05 09:24:45;;;;;;;1.25;1.00;;;16.70;99.90;;;;;;4131037;28;20249;-86
2021/12/05 09:27:05;;;;;;;2.15;0.90;;;16.70;99.90;;;;;;4167702;27;20209;-85
2021/12/05 10:07:22;;;;;;;1.35;0.90;;;16.70;99.90;;;;;;4246523;28;20190;-88
2021/12/05 10:11:59;;;;;;;1.70;1.20;;;16.70;99.90;;;;;;4203643;28;20263;-88
2021/12/05 10:16:51;;;;;;;2.35;1.17;;;16.70;99.90;;;;;;4161667;28;20274;-88
2021/12/05 10:26:32;;;;;;;1.20;1.00;;;16.70;99.90;;;;;;4229191;28;20586;-89
2021/12/05 10:38:00;;;;;;;3.00;1.50;;;16.60;99.90;;;;;;4243296;28;20197;-89
2021/12/05 10:40:06;;;;;;;1.23;0.98;;;16.70;99.90;;;;;;4245193;28;20274;-88
2021/12/05 10:42:35;;;;;;;1.67;1.27;;;16.70;99.90;;;;;;4245300;28;20209;-88
2021/12/05 10:44:45;;;;;;;1.83;1.00;;;16.60;99.90;;;;;;4245598;28;20615;-89
2021/12/05 10:46:50;;;;;;;1.85;1.27;;;16.60;99.90;;;;;;4245246;28;20235;-88
2021/12/05 10:48:55;;;;;;;1.00;0.85;;;16.60;99.90;;;;;;4246105;28;20194;-89
2021/12/05 10:51:00;;;;;;;1.42;1.30;;;16.70;99.90;;;;;;4242882;28;20239;-89
2021/12/05 10:53:25;;;;;;;1.52;1.02;;;16.70;99.90;;;;;;4234186;28;20213;-88
2021/12/05 10:55:29;;;;;;;2.25;1.40;;;16.70;99.90;;;;;;4234173;28;20247;-89
2021/12/05 10:57:40;;;;;;;2.38;1.67;;;16.70;99.90;;;;;;4234940;28;20194;-88
2021/12/05 10:59:44;;;;;;;2.05;1.33;;;16.60;99.90;;;;;;4234134;28;20263;-88
2021/12/05 11:01:49;;;;;;;3.00;1.48;;;16.70;99.90;;;;;;4234269;28;20529;-88
2021/12/05 11:03:54;;;;;;;2.55;1.27;;;16.60;99.90;;;;;;4234340;28;20193;-89
2021/12/05 11:05:57;;;;;;;1.83;1.30;;;16.70;99.90;;;;;;4233577;28;20209;-89
2021/12/05 11:07:59;;;;;;;1.95;1.20;;;16.70;99.90;;;;;;4234193;28;20254;-88
2021/12/05 11:10:03;;;;;;;1.63;1.30;;;16.60;99.90;;;;;;4233787;28;20275;-88
2021/12/05 11:12:11;;;;;;;1.83;1.25;;;16.60;99.90;;;;;;4233993;28;20235;-88
2021/12/05 11:14:17;;;;;;;1.83;1.27;;;16.60;99.90;;;;;;4233548;28;20217;-88
2021/12/05 11:16:45;;;;;;;1.63;1.20;;;16.70;99.90;;;;;;4233642;28;20217;-88
2021/12/05 11:18:48;;;;;;;1.90;1.35;;;16.60;99.90;;;;;;4234661;28;20210;-88
2021/12/05 11:20:53;;;;;;;2.38;1.20;;;16.60;99.90;;;;;;4234404;28;20213;-88
2021/12/05 11:22:56;;;;;;;3.17;1.30;;;16.60;99.90;;;;;;4233730;28;20666;-88
2021/12/05 11:25:01;;;;;;;2.28;1.40;;;16.60;99.90;;;;;;4233656;28;20194;-89
2021/12/05 11:27:14;;;;;;;2.03;1.40;;;16.60;99.90;;;;;;4233691;28;20205;-88
2021/12/05 11:29:16;;;;;;;2.05;1.25;;;16.60;99.90;;;;;;4233577;28;20282;-88
2021/12/05 11:31:25;;;;;;;1.60;1.50;;;16.70;99.90;;;;;;4233958;28;20198;-88
2021/12/05 11:33:28;;;;;;;1.42;0.95;;;16.70;99.90;;;;;;4233586;28;20725;-88
2021/12/05 11:35:38;;;;;;;2.50;1.55;;;16.70;99.90;;;;;;4233716;28;20719;-88
2021/12/05 11:37:52;;;;;;;1.85;1.50;;;16.60;99.90;;;;;;4233184;28;20221;-88
2021/12/05 11:40:04;;;;;;;2.35;1.20;;;16.60;99.90;;;;;;4232913;28;20633;-88
2021/12/05 11:42:20;;;;;;;2.00;1.40;;;16.70;99.90;;;;;;4233469;28;20549;-89
2021/12/05 11:44:24;;;;;;;2.42;1.25;;;16.60;99.90;;;;;;4233255;28;20258;-88
2021/12/05 11:46:30;;;;;;;2.95;1.40;;;16.70;99.90;;;;;;4233379;28;20198;-88
2021/12/05 11:48:36;;;;;;;3.45;1.63;;;16.60;99.90;;;;;;4233193;28;20222;-88
2021/12/05 11:50:40;;;;;;;1.88;1.33;;;16.60;99.90;;;;;;4232970;28;20262;-88
2021/12/05 11:52:42;;;;;;;2.08;1.40;;;16.60;99.90;;;;;;4233261;28;20194;-88
2021/12/05 11:54:46;;;;;;;3.47;1.45;;;16.70;99.90;;;;;;4233180;28;20251;-88
2021/12/05 11:57:01;;;;;;;1.42;1.20;;;16.60;99.90;;;;;;4230084;28;20227;-85
2021/12/05 11:59:18;;;;;;;1.65;1.30;;;16.60;99.90;;;;;;4237918;28;20217;-86
2021/12/05 12:01:21;;;;;;;2.28;1.45;;;16.60;99.90;;;;;;4239887;28;20213;-85
2021/12/05 12:03:47;;;;;;;1.65;1.30;;;16.60;99.90;;;;;;4238806;28;20221;-86
2021/12/05 12:05:56;;;;;;;2.63;1.70;;;16.60;99.90;;;;;;4239078;28;20240;-85
2021/12/05 12:08:12;;;;;;;1.95;1.52;;;16.60;99.90;;;;;;4239427;28;20209;-86
2021/12/05 12:10:29;;;;;;;2.28;1.38;;;16.70;99.90;;;;;;4239957;28;20602;-86
2021/12/05 12:12:35;;;;;;;2.25;1.23;;;16.60;99.90;;;;;;4239754;28;20219;-86
2021/12/05 12:14:38;;;;;;;1.58;1.20;;;16.70;99.90;;;;;;4239134;28;20221;-86
2021/12/05 12:16:46;;;;;;;3.00;1.52;;;16.60;99.90;;;;;;4239574;28;20681;-86
2021/12/05 12:18:53;;;;;;;1.70;1.33;;;16.60;99.90;;;;;;4239501;28;20622;-87
2021/12/05 12:21:04;;;;;;;2.35;1.25;;;16.60;99.90;;;;;;4238994;28;20259;-87
2021/12/05 12:23:08;;;;;;;1.60;1.50;;;16.60;99.90;;;;;;4239740;28;20208;-86
2021/12/05 12:25:16;;;;;;;1.60;1.40;;;16.60;99.90;;;;;;4238999;28;20594;-86
2021/12/05 12:27:19;;;;;;;2.50;1.33;;;16.60;99.90;;;;;;4239305;28;20190;-86
2021/12/05 12:29:26;;;;;;;2.65;1.33;;;16.70;99.90;;;;;;4238910;28;20691;-86
2021/12/05 12:31:35;;;;;;;1.50;1.40;;;16.60;99.90;;;;;;4239527;28;20261;-86
2021/12/05 12:33:49;;;;;;;2.05;1.55;;;16.60;99.90;;;;;;4239238;28;20651;-86
2021/12/05 12:35:55;;;;;;;2.03;1.30;;;16.60;99.90;;;;;;4240247;28;20236;-86
2021/12/05 12:38:06;;;;;;;1.73;1.30;;;16.60;99.90;;;;;;4238509;28;20303;-87
2021/12/05 12:40:12;;;;;;;1.90;1.50;;;16.60;99.90;;;;;;4238590;28;20283;-86
2021/12/05 12:42:22;;;;;;;2.13;1.30;;;16.60;99.90;;;;;;4239303;28;20217;-86
2021/12/05 12:44:31;;;;;;;1.67;1.48;;;16.60;99.90;;;;;;4239066;28;20197;-86
2021/12/05 12:46:49;;;;;;;2.30;1.58;;;16.60;99.90;;;;;;4239278;28;20197;-87
2021/12/05 12:49:22;;;;;;;2.42;1.45;;;16.60;99.90;;;;;;4238566;28;20210;-86
2021/12/05 12:51:37;;;;;;;1.95;1.30;;;16.60;99.90;;;;;;4238687;28;20266;-86
2021/12/05 12:53:45;;;;;;;1.58;1.20;;;16.60;99.90;;;;;;4238569;28;20251;-86
2021/12/05 12:55:57;;;;;;;1.40;1.25;;;16.60;99.90;;;;;;4238847;28;20221;-87
2021/12/05 12:58:10;;;;;;;1.58;1.20;;;16.60;99.90;;;;;;4238229;28;20223;-86
2021/12/05 13:00:18;;;;;;;1.30;1.20;;;16.60;99.90;;;;;;4238183;28;20262;-86
2021/12/05 13:02:37;;;;;;;2.33;1.42;;;16.60;99.90;;;;;;4237656;28;20232;-86
2021/12/05 13:05:03;;;;;;;2.17;1.58;;;16.60;99.90;;;;;;4238520;28;20274;-86
2021/12/05 13:09:59;;;;;;;2.45;1.30;;;16.60;99.90;;;;;;4238790;28;20206;-87
2021/12/05 13:10:05;;;;;;;1.65;1.20;;;16.60;99.90;;;;;;4236383;28;20217;-86
2021/12/05 13:12:11;;;;;;;1.50;1.33;;;16.60;99.90;;;;;;4237894;28;20614;-86
2021/12/05 13:14:17;;;;;;;2.17;1.48;;;16.60;99.90;;;;;;4237871;28;20202;-86
2021/12/05 13:16:29;;;;;;;1.30;1.10;;;16.60;99.90;;;;;;4238524;28;20198;-86
2021/12/05 13:18:47;;;;;;;1.58;1.13;;;16.60;99.90;;;;;;4237918;28;20313;-86
2021/12/05 13:20:56;;;;;;;2.05;1.23;;;16.60;99.90;;;;;;4237792;28;20221;-86
2021/12/05 13:23:19;;;;;;;2.50;1.40;;;16.60;99.90;;;;;;4238138;28;20209;-86
2021/12/05 13:25:33;;;;;;;1.88;1.40;;;16.60;99.90;;;;;;4238665;28;20194;-86
2021/12/05 13:27:39;;;;;;;1.70;1.30;;;16.60;99.90;;;;;;4238192;28;20286;-87
2021/12/05 13:29:54;;;;;;;1.85;1.38;;;16.60;99.90;;;;;;4238540;28;20213;-86
2021/12/05 13:32:04;;;;;;;2.45;1.48;;;16.60;99.90;;;;;;4238321;28;20198;-86
2021/12/05 13:34:20;;;;;;;1.30;1.20;;;16.60;99.90;;;;;;4238186;28;20197;-86
2021/12/05 13:36:51;;;;;;;1.48;1.38;;;16.60;99.90;;;;;;4238023;28;20213;-86
2021/12/05 13:39:04;;;;;;;;;;;;;;;;;;;;;
2021/12/05 13:41:23;;;;;;;2.00;1.42;;;16.60;99.90;;;;;;4238202;28;20246;-86
2021/12/05 13:43:31;;;;;;;2.95;1.55;;;16.60;99.90;;;;;;4238524;28;20602;-86
2021/12/05 13:45:41;;;;;;;2.17;1.38;;;16.50;99.90;;;;;;4227589;28;20217;-86
2021/12/05 13:47:48;;;;;;;1.85;1.40;;;16.50;99.90;;;;;;4229411;28;20209;-87
2021/12/05 13:49:51;;;;;;;2.28;1.65;;;16.50;99.90;;;;;;4231580;28;20227;-86
2021/12/05 13:51:53;;;;;;;1.60;1.38;;;16.50;99.90;;;;;;4231703;28;20255;-86
2021/12/05 13:53:59;;;;;;;2.75;1.30;;;16.50;99.90;;;;;;4230993;28;20214;-86
2021/12/05 13:56:21;;;;;;;1.75;1.50;;;16.50;99.90;;;;;;4231461;28;20258;-86
2021/12/05 13:58:28;;;;;;;1.75;1.63;;;16.50;99.90;;;;;;4231274;28;20254;-86
2021/12/05 14:00:40;;;;;;;2.38;1.58;;;16.60;99.90;;;;;;4230892;28;20213;-86
2021/12/05 14:03:01;;;;;;;1.42;1.27;;;16.60;99.90;;;;;;4231625;28;20214;-86
2021/12/05 14:05:28;;;;;;;2.35;1.30;;;16.50;99.90;;;;;;4231322;28;20213;-86
2021/12/05 14:07:33;;;;;;;1.40;1.30;;;16.60;99.90;;;;;;4231415;28;20210;-86
2021/12/05 14:09:37;;;;;;;2.50;1.50;;;16.50;99.90;;;;;;4231048;28;20218;-86
2021/12/05 14:11:55;;;;;;;1.50;1.23;;;16.50;99.90;;;;;;4232046;28;20278;-86
2021/12/05 14:13:58;;;;;;;1.33;1.20;;;16.50;99.90;;;;;;4231901;28;20212;-87
2021/12/05 14:16:00;;;;;;;1.88;1.40;;;16.50;99.90;;;;;;4231574;28;20600;-86
2021/12/05 14:18:03;;;;;;;1.33;1.20;;;16.50;99.90;;;;;;4232216;28;20194;-86
2021/12/05 14:20:08;;;;;;;2.03;1.42;;;16.50;99.90;;;;;;4231528;28;20201;-86
2021/12/05 14:22:13;;;;;;;2.10;1.30;;;16.50;99.90;;;;;;4231739;28;20214;-86
2021/12/05 14:24:17;;;;;;;1.30;1.20;;;16.50;99.90;;;;;;4231492;28;20198;-86
2021/12/05 14:26:21;;;;;;;3.88;1.50;;;16.50;99.90;;;;;;4232024;28;20250;-86
2021/12/05 14:28:25;;;;;;;1.35;1.25;;;16.50;99.90;;;;;;4234651;28;20634;-85
2021/12/05 14:30:30;;;;;;;1.45;1.20;;;16.50;99.90;;;;;;4235792;28;20218;-87
2021/12/05 14:32:35;;;;;;;1.58;1.10;;;16.50;99.90;;;;;;4234465;28;20254;-86
2021/12/05 14:34:38;;;;;;;1.67;1.40;;;16.50;99.90;;;;;;4234031;28;20258;-86
2021/12/05 14:36:44;;;;;;;2.03;1.38;;;16.50;99.90;;;;;;4235082;28;20232;-86
2021/12/05 14:38:46;;;;;;;2.58;1.63;;;16.50;99.90;;;;;;4234648;28;20259;-87
2021/12/05 14:40:50;;;;;;;1.95;1.30;;;16.50;99.90;;;;;;4233859;28;20286;-86
2021/12/05 14:42:53;;;;;;;1.52;1.25;;;16.50;99.90;;;;;;4235020;28;20225;-86
2021/12/05 14:45:01;;;;;;;1.65;1.20;;;16.50;99.90;;;;;;4234608;28;20258;-86
2021/12/05 14:47:07;;;;;;;1.92;1.42;;;16.50;99.90;;;;;;4234558;28;20244;-86
2021/12/05 14:49:09;;;;;;;2.00;1.50;;;16.50;99.90;;;;;;4234016;28;20210;-88
2021/12/05 14:51:11;;;;;;;2.30;1.40;;;16.50;99.90;;;;;;4234115;28;20217;-88
2021/12/05 14:53:18;;;;;;;1.70;1.30;;;16.50;99.90;;;;;;4234100;28;20201;-88
2021/12/05 14:55:22;;;;;;;1.95;1.40;;;16.50;99.90;;;;;;4233656;28;20218;-88
2021/12/05 14:57:27;;;;;;;1.90;1.33;;;16.50;99.90;;;;;;4233881;28;20270;-88
2021/12/05 14:59:29;;;;;;;1.35;1.20;;;16.50;99.90;;;;;;4234491;28;20190;-89
2021/12/05 15:01:34;;;;;;;2.53;1.50;;;16.40;99.90;;;;;;4234836;28;20190;-88
2021/12/05 15:03:36;;;;;;;1.92;1.33;;;16.40;99.90;;;;;;4233879;28;20230;-88
2021/12/05 15:05:39;;;;;;;2.70;1.50;;;16.50;99.90;;;;;;4233664;28;20209;-88
2021/12/05 15:07:43;;;;;;;1.73;1.30;;;16.40;99.90;;;;;;4233976;28;20193;-88
2021/12/05 15:09:48;;;;;;;1.88;1.15;;;16.50;99.90;;;;;;4233249;28;20263;-88
2021/12/05 15:11:54;;;;;;;1.95;1.65;;;16.40;99.90;;;;;;4234001;28;20210;-88
2021/12/05 15:14:04;;;;;;;2.08;1.55;;;16.50;99.90;;;;;;4233875;28;20198;-88
2021/12/05 15:16:06;;;;;;;2.47;1.10;;;16.40;99.90;;;;;;4233846;28;20213;-88
2021/12/05 15:18:17;;;;;;;1.50;1.20;;;16.40;99.90;;;;;;4233727;28;20605;-88